sensor_id;sensor_type;location;lat;lon;timestamp;P1;durP1;ratioP1;P2;durP2;ratioP2
22644;SDS011;11489;50.834;6.752;2023-02-15T00:01:17;34.40;;;15.93;;
22644;SDS011;11489;50.834;6.752;2023-02-15T00:03:43;34.60;;;16.00;;
22644;SDS011;11489;50.834;6.752;2023-02-15T00:06:09;38.03;;;15.83;;
22644;SDS011;11489;50.834;6.752;2023-02-15T00:08:35;33.70;;;15.60;;
22644;SDS011;11489;50.834;6.752;2023-02-15T00:11:10;35.70;;;16.43;;
22644;SDS011;11489;50.834;6.752;2023-02-15T00:13:38;32.93;;;15.30;;
22644;SDS011;11489;50.834;6.752;2023-02-15T00:16:07;35.33;;;15.73;;
22644;SDS011;11489;50.834;6.752;2023-02-15T00:18:34;31.87;;;15.83;;
22644;SDS011;11489;50.834;6.752;2023-02-15T00:21:05;36.13;;;16.93;;
22644;SDS011;11489;50.834;6.752;2023-02-15T00:23:32;35.27;;;15.77;;
22644;SDS011;11489;50.834;6.752;2023-02-15T00:26:09;33.73;;;16.17;;
22644;SDS011;11489;50.834;6.752;2023-02-15T00:28:36;34.27;;;15.33;;
22644;SDS011;11489;50.834;6.752;2023-02-15T00:31:11;32.70;;;15.33;;
22644;SDS011;11489;50.834;6.752;2023-02-15T00:33:38;35.07;;;15.97;;
22644;SDS011;11489;50.834;6.752;2023-02-15T00:36:05;31.33;;;14.83;;
22644;SDS011;11489;50.834;6.752;2023-02-15T00:38:32;36.07;;;15.60;;
22644;SDS011;11489;50.834;6.752;2023-02-15T00:41:01;38.20;;;16.60;;
22644;SDS011;11489;50.834;6.752;2023-02-15T00:43:28;36.37;;;15.73;;
22644;SDS011;11489;50.834;6.752;2023-02-15T00:45:55;34.63;;;15.77;;
22644;SDS011;11489;50.834;6.752;2023-02-15T00:48:21;35.73;;;16.03;;
22644;SDS011;11489;50.834;6.752;2023-02-15T00:50:54;35.80;;;16.47;;
22644;SDS011;11489;50.834;6.752;2023-02-15T00:53:21;34.70;;;16.37;;
22644;SDS011;11489;50.834;6.752;2023-02-15T00:55:49;36.70;;;15.93;;
22644;SDS011;11489;50.834;6.752;2023-02-15T00:58:15;33.80;;;16.30;;
22644;SDS011;11489;50.834;6.752;2023-02-15T01:00:41;37.33;;;16.37;;
22644;SDS011;11489;50.834;6.752;2023-02-15T01:03:08;32.73;;;15.93;;
22644;SDS011;11489;50.834;6.752;2023-02-15T01:05:34;36.47;;;16.77;;
22644;SDS011;11489;50.834;6.752;2023-02-15T01:08:00;35.63;;;15.87;;
22644;SDS011;11489;50.834;6.752;2023-02-15T01:10:26;39.37;;;16.30;;
22644;SDS011;11489;50.834;6.752;2023-02-15T01:12:52;39.23;;;16.57;;
22644;SDS011;11489;50.834;6.752;2023-02-15T01:15:18;37.33;;;16.47;;
22644;SDS011;11489;50.834;6.752;2023-02-15T01:17:44;34.97;;;16.07;;
22644;SDS011;11489;50.834;6.752;2023-02-15T01:20:16;35.47;;;16.20;;
22644;SDS011;11489;50.834;6.752;2023-02-15T01:22:42;35.63;;;16.13;;
22644;SDS011;11489;50.834;6.752;2023-02-15T01:25:08;35.60;;;16.63;;
22644;SDS011;11489;50.834;6.752;2023-02-15T01:27:34;39.10;;;16.93;;
22644;SDS011;11489;50.834;6.752;2023-02-15T01:30:00;35.27;;;16.13;;
22644;SDS011;11489;50.834;6.752;2023-02-15T01:32:26;36.43;;;16.10;;
22644;SDS011;11489;50.834;6.752;2023-02-15T01:34:52;36.57;;;15.00;;
22644;SDS011;11489;50.834;6.752;2023-02-15T01:37:18;37.93;;;16.10;;
22644;SDS011;11489;50.834;6.752;2023-02-15T01:39:43;39.47;;;16.53;;
22644;SDS011;11489;50.834;6.752;2023-02-15T01:42:12;40.77;;;17.13;;
22644;SDS011;11489;50.834;6.752;2023-02-15T01:44:52;40.37;;;16.63;;
22644;SDS011;11489;50.834;6.752;2023-02-15T01:47:23;37.20;;;16.43;;
22644;SDS011;11489;50.834;6.752;2023-02-15T01:50:03;35.60;;;16.80;;
22644;SDS011;11489;50.834;6.752;2023-02-15T01:52:36;36.80;;;16.43;;
22644;SDS011;11489;50.834;6.752;2023-02-15T01:55:05;35.00;;;16.80;;
22644;SDS011;11489;50.834;6.752;2023-02-15T01:57:31;38.63;;;17.07;;
22644;SDS011;11489;50.834;6.752;2023-02-15T01:59:58;37.40;;;16.23;;
22644;SDS011;11489;50.834;6.752;2023-02-15T02:02:26;36.73;;;17.10;;
22644;SDS011;11489;50.834;6.752;2023-02-15T02:04:54;34.33;;;15.70;;
22644;SDS011;11489;50.834;6.752;2023-02-15T02:07:26;37.87;;;16.73;;
22644;SDS011;11489;50.834;6.752;2023-02-15T02:09:53;33.43;;;16.17;;
22644;SDS011;11489;50.834;6.752;2023-02-15T02:12:19;36.67;;;17.27;;
22644;SDS011;11489;50.834;6.752;2023-02-15T02:14:46;35.80;;;16.47;;
22644;SDS011;11489;50.834;6.752;2023-02-15T02:17:16;37.10;;;15.67;;
22644;SDS011;11489;50.834;6.752;2023-02-15T02:25:41;34.83;;;16.40;;
22644;SDS011;11489;50.834;6.752;2023-02-15T02:28:20;40.00;;;16.60;;
22644;SDS011;11489;50.834;6.752;2023-02-15T02:37:00;36.23;;;15.60;;
22644;SDS011;11489;50.834;6.752;2023-02-15T02:42:55;33.73;;;14.27;;
22644;SDS011;11489;50.834;6.752;2023-02-15T02:45:26;33.73;;;15.63;;
22644;SDS011;11489;50.834;6.752;2023-02-15T02:48:05;37.80;;;15.97;;
22644;SDS011;11489;50.834;6.752;2023-02-15T02:50:35;37.00;;;15.97;;
22644;SDS011;11489;50.834;6.752;2023-02-15T02:53:00;36.80;;;16.10;;
22644;SDS011;11489;50.834;6.752;2023-02-15T02:58:14;36.13;;;16.20;;
22644;SDS011;11489;50.834;6.752;2023-02-15T03:00:48;35.57;;;16.17;;
22644;SDS011;11489;50.834;6.752;2023-02-15T03:03:19;34.87;;;16.13;;
22644;SDS011;11489;50.834;6.752;2023-02-15T03:05:50;34.07;;;15.90;;
22644;SDS011;11489;50.834;6.752;2023-02-15T03:08:25;36.97;;;16.30;;
22644;SDS011;11489;50.834;6.752;2023-02-15T03:10:55;33.80;;;15.87;;
22644;SDS011;11489;50.834;6.752;2023-02-15T03:13:24;37.60;;;15.67;;
22644;SDS011;11489;50.834;6.752;2023-02-15T03:15:50;38.50;;;16.30;;
22644;SDS011;11489;50.834;6.752;2023-02-15T03:18:38;33.60;;;15.07;;
22644;SDS011;11489;50.834;6.752;2023-02-15T03:21:08;32.67;;;16.27;;
22644;SDS011;11489;50.834;6.752;2023-02-15T03:23:48;32.67;;;15.50;;
22644;SDS011;11489;50.834;6.752;2023-02-15T03:26:17;38.03;;;16.70;;
22644;SDS011;11489;50.834;6.752;2023-02-15T03:28:45;36.57;;;16.50;;
22644;SDS011;11489;50.834;6.752;2023-02-15T03:31:16;37.50;;;16.13;;
22644;SDS011;11489;50.834;6.752;2023-02-15T03:33:51;36.00;;;16.33;;
22644;SDS011;11489;50.834;6.752;2023-02-15T03:36:22;36.23;;;16.17;;
22644;SDS011;11489;50.834;6.752;2023-02-15T03:41:50;35.20;;;15.13;;
22644;SDS011;11489;50.834;6.752;2023-02-15T03:46:56;32.20;;;15.20;;
22644;SDS011;11489;50.834;6.752;2023-02-15T03:52:27;34.67;;;15.17;;
22644;SDS011;11489;50.834;6.752;2023-02-15T03:54:54;34.40;;;15.77;;
22644;SDS011;11489;50.834;6.752;2023-02-15T03:57:22;32.43;;;14.63;;
22644;SDS011;11489;50.834;6.752;2023-02-15T04:00:11;36.20;;;15.53;;
22644;SDS011;11489;50.834;6.752;2023-02-15T04:03:03;36.30;;;15.63;;
22644;SDS011;11489;50.834;6.752;2023-02-15T04:05:48;37.50;;;15.93;;
22644;SDS011;11489;50.834;6.752;2023-02-15T04:08:14;35.30;;;16.87;;
22644;SDS011;11489;50.834;6.752;2023-02-15T04:10:40;34.67;;;15.40;;
22644;SDS011;11489;50.834;6.752;2023-02-15T04:13:39;35.20;;;15.43;;
22644;SDS011;11489;50.834;6.752;2023-02-15T04:16:04;32.20;;;15.00;;
22644;SDS011;11489;50.834;6.752;2023-02-15T04:21:22;31.30;;;14.03;;
22644;SDS011;11489;50.834;6.752;2023-02-15T04:24:08;36.83;;;15.13;;
22644;SDS011;11489;50.834;6.752;2023-02-15T04:26:52;36.50;;;15.17;;
22644;SDS011;11489;50.834;6.752;2023-02-15T04:29:22;38.50;;;16.33;;
22644;SDS011;11489;50.834;6.752;2023-02-15T04:31:49;32.80;;;15.13;;
22644;SDS011;11489;50.834;6.752;2023-02-15T04:34:16;34.27;;;15.90;;
22644;SDS011;11489;50.834;6.752;2023-02-15T04:36:42;33.20;;;15.43;;
22644;SDS011;11489;50.834;6.752;2023-02-15T04:39:08;36.67;;;15.50;;
22644;SDS011;11489;50.834;6.752;2023-02-15T04:41:37;35.57;;;15.27;;
22644;SDS011;11489;50.834;6.752;2023-02-15T04:44:02;33.57;;;15.03;;
22644;SDS011;11489;50.834;6.752;2023-02-15T04:46:28;34.47;;;16.13;;
22644;SDS011;11489;50.834;6.752;2023-02-15T04:48:54;32.13;;;15.73;;
22644;SDS011;11489;50.834;6.752;2023-02-15T04:51:20;35.07;;;15.33;;
22644;SDS011;11489;50.834;6.752;2023-02-15T04:53:46;34.23;;;15.00;;
22644;SDS011;11489;50.834;6.752;2023-02-15T04:56:11;34.03;;;16.00;;
22644;SDS011;11489;50.834;6.752;2023-02-15T04:58:37;34.07;;;15.20;;
22644;SDS011;11489;50.834;6.752;2023-02-15T05:01:06;36.73;;;15.30;;
22644;SDS011;11489;50.834;6.752;2023-02-15T05:03:32;38.93;;;15.87;;
22644;SDS011;11489;50.834;6.752;2023-02-15T05:05:58;32.70;;;14.93;;
22644;SDS011;11489;50.834;6.752;2023-02-15T05:08:24;35.10;;;15.23;;
22644;SDS011;11489;50.834;6.752;2023-02-15T05:10:49;35.13;;;15.03;;
22644;SDS011;11489;50.834;6.752;2023-02-15T05:13:16;32.87;;;15.40;;
22644;SDS011;11489;50.834;6.752;2023-02-15T05:15:45;35.83;;;15.00;;
22644;SDS011;11489;50.834;6.752;2023-02-15T05:18:16;33.90;;;15.27;;
22644;SDS011;11489;50.834;6.752;2023-02-15T05:20:43;34.53;;;15.10;;
22644;SDS011;11489;50.834;6.752;2023-02-15T05:23:09;35.77;;;15.73;;
22644;SDS011;11489;50.834;6.752;2023-02-15T05:25:35;32.33;;;14.77;;
22644;SDS011;11489;50.834;6.752;2023-02-15T05:28:19;33.20;;;14.43;;
22644;SDS011;11489;50.834;6.752;2023-02-15T05:30:49;32.67;;;14.57;;
22644;SDS011;11489;50.834;6.752;2023-02-15T05:33:21;33.90;;;14.20;;
22644;SDS011;11489;50.834;6.752;2023-02-15T05:35:47;31.97;;;14.57;;
22644;SDS011;11489;50.834;6.752;2023-02-15T05:38:12;34.00;;;15.37;;
22644;SDS011;11489;50.834;6.752;2023-02-15T05:40:38;31.37;;;14.93;;
22644;SDS011;11489;50.834;6.752;2023-02-15T05:43:04;32.90;;;14.83;;
22644;SDS011;11489;50.834;6.752;2023-02-15T05:45:29;34.70;;;16.23;;
22644;SDS011;11489;50.834;6.752;2023-02-15T05:47:55;35.03;;;14.50;;
22644;SDS011;11489;50.834;6.752;2023-02-15T05:50:23;37.07;;;16.17;;
22644;SDS011;11489;50.834;6.752;2023-02-15T05:52:49;35.70;;;16.03;;
22644;SDS011;11489;50.834;6.752;2023-02-15T05:55:14;34.57;;;15.23;;
22644;SDS011;11489;50.834;6.752;2023-02-15T05:57:40;35.97;;;15.27;;
22644;SDS011;11489;50.834;6.752;2023-02-15T06:00:06;36.77;;;16.37;;
22644;SDS011;11489;50.834;6.752;2023-02-15T06:02:36;36.67;;;15.37;;
22644;SDS011;11489;50.834;6.752;2023-02-15T06:05:03;35.70;;;15.43;;
22644;SDS011;11489;50.834;6.752;2023-02-15T06:07:29;30.10;;;14.07;;
22644;SDS011;11489;50.834;6.752;2023-02-15T06:09:55;34.97;;;15.43;;
22644;SDS011;11489;50.834;6.752;2023-02-15T06:12:21;33.57;;;15.17;;
22644;SDS011;11489;50.834;6.752;2023-02-15T06:14:46;33.30;;;14.87;;
22644;SDS011;11489;50.834;6.752;2023-02-15T06:17:12;35.23;;;15.43;;
22644;SDS011;11489;50.834;6.752;2023-02-15T06:19:39;33.17;;;14.57;;
22644;SDS011;11489;50.834;6.752;2023-02-15T06:22:05;35.10;;;15.30;;
22644;SDS011;11489;50.834;6.752;2023-02-15T06:24:31;35.03;;;14.80;;
22644;SDS011;11489;50.834;6.752;2023-02-15T06:26:57;30.60;;;14.27;;
22644;SDS011;11489;50.834;6.752;2023-02-15T06:29:23;31.83;;;14.20;;
22644;SDS011;11489;50.834;6.752;2023-02-15T06:31:48;32.03;;;13.83;;
22644;SDS011;11489;50.834;6.752;2023-02-15T06:34:14;31.77;;;14.77;;
22644;SDS011;11489;50.834;6.752;2023-02-15T06:36:40;32.37;;;14.83;;
22644;SDS011;11489;50.834;6.752;2023-02-15T06:39:06;34.70;;;14.37;;
22644;SDS011;11489;50.834;6.752;2023-02-15T06:41:31;34.50;;;15.03;;
22644;SDS011;11489;50.834;6.752;2023-02-15T06:43:57;33.17;;;14.73;;
22644;SDS011;11489;50.834;6.752;2023-02-15T06:46:23;36.40;;;14.17;;
22644;SDS011;11489;50.834;6.752;2023-02-15T06:48:48;30.73;;;14.60;;
22644;SDS011;11489;50.834;6.752;2023-02-15T06:51:14;32.97;;;14.53;;
22644;SDS011;11489;50.834;6.752;2023-02-15T06:53:40;34.30;;;15.03;;
22644;SDS011;11489;50.834;6.752;2023-02-15T06:56:07;34.27;;;15.57;;
22644;SDS011;11489;50.834;6.752;2023-02-15T06:58:38;32.60;;;15.07;;
22644;SDS011;11489;50.834;6.752;2023-02-15T07:01:04;34.87;;;15.73;;
22644;SDS011;11489;50.834;6.752;2023-02-15T07:03:30;36.90;;;15.90;;
22644;SDS011;11489;50.834;6.752;2023-02-15T07:05:57;30.03;;;13.90;;
22644;SDS011;11489;50.834;6.752;2023-02-15T07:08:24;33.80;;;14.27;;
22644;SDS011;11489;50.834;6.752;2023-02-15T07:10:51;33.67;;;14.53;;
22644;SDS011;11489;50.834;6.752;2023-02-15T07:13:17;31.63;;;14.33;;
22644;SDS011;11489;50.834;6.752;2023-02-15T07:15:44;32.40;;;14.63;;
22644;SDS011;11489;50.834;6.752;2023-02-15T07:18:10;36.30;;;15.10;;
22644;SDS011;11489;50.834;6.752;2023-02-15T07:20:36;34.70;;;14.43;;
22644;SDS011;11489;50.834;6.752;2023-02-15T07:23:03;34.03;;;14.00;;
22644;SDS011;11489;50.834;6.752;2023-02-15T07:25:29;32.63;;;13.93;;
22644;SDS011;11489;50.834;6.752;2023-02-15T07:27:58;33.00;;;14.00;;
22644;SDS011;11489;50.834;6.752;2023-02-15T07:30:25;33.00;;;14.00;;
22644;SDS011;11489;50.834;6.752;2023-02-15T07:32:55;31.13;;;13.43;;
22644;SDS011;11489;50.834;6.752;2023-02-15T07:35:46;31.37;;;14.00;;
22644;SDS011;11489;50.834;6.752;2023-02-15T07:38:15;33.40;;;14.13;;
22644;SDS011;11489;50.834;6.752;2023-02-15T07:40:41;32.67;;;13.67;;
22644;SDS011;11489;50.834;6.752;2023-02-15T07:43:07;30.73;;;13.87;;
22644;SDS011;11489;50.834;6.752;2023-02-15T07:45:33;31.80;;;14.27;;
22644;SDS011;11489;50.834;6.752;2023-02-15T07:48:00;30.57;;;13.97;;
22644;SDS011;11489;50.834;6.752;2023-02-15T07:50:26;31.53;;;14.93;;
22644;SDS011;11489;50.834;6.752;2023-02-15T07:52:52;35.00;;;14.87;;
22644;SDS011;11489;50.834;6.752;2023-02-15T07:55:17;33.40;;;15.00;;
22644;SDS011;11489;50.834;6.752;2023-02-15T07:57:44;32.47;;;14.07;;
22644;SDS011;11489;50.834;6.752;2023-02-15T08:00:14;35.13;;;15.03;;
22644;SDS011;11489;50.834;6.752;2023-02-15T08:02:42;33.53;;;14.17;;
22644;SDS011;11489;50.834;6.752;2023-02-15T08:05:12;28.23;;;14.20;;
22644;SDS011;11489;50.834;6.752;2023-02-15T08:07:38;32.43;;;14.80;;
22644;SDS011;11489;50.834;6.752;2023-02-15T08:10:03;34.80;;;14.80;;
22644;SDS011;11489;50.834;6.752;2023-02-15T08:12:30;32.97;;;14.83;;
22644;SDS011;11489;50.834;6.752;2023-02-15T08:14:55;30.07;;;14.40;;
22644;SDS011;11489;50.834;6.752;2023-02-15T08:17:21;33.50;;;15.60;;
22644;SDS011;11489;50.834;6.752;2023-02-15T08:19:46;30.17;;;13.77;;
22644;SDS011;11489;50.834;6.752;2023-02-15T08:22:13;32.40;;;14.60;;
22644;SDS011;11489;50.834;6.752;2023-02-15T08:24:40;33.63;;;15.10;;
22644;SDS011;11489;50.834;6.752;2023-02-15T08:27:07;37.07;;;15.23;;
22644;SDS011;11489;50.834;6.752;2023-02-15T08:29:35;30.50;;;14.43;;
22644;SDS011;11489;50.834;6.752;2023-02-15T08:32:06;32.67;;;14.57;;
22644;SDS011;11489;50.834;6.752;2023-02-15T08:34:36;30.43;;;14.33;;
22644;SDS011;11489;50.834;6.752;2023-02-15T08:37:04;31.50;;;15.03;;
22644;SDS011;11489;50.834;6.752;2023-02-15T08:39:31;34.53;;;14.93;;
22644;SDS011;11489;50.834;6.752;2023-02-15T08:41:56;33.10;;;15.50;;
22644;SDS011;11489;50.834;6.752;2023-02-15T08:44:22;34.20;;;15.23;;
22644;SDS011;11489;50.834;6.752;2023-02-15T08:46:49;31.97;;;14.90;;
22644;SDS011;11489;50.834;6.752;2023-02-15T08:49:16;30.80;;;15.13;;
22644;SDS011;11489;50.834;6.752;2023-02-15T08:51:45;31.90;;;15.37;;
22644;SDS011;11489;50.834;6.752;2023-02-15T08:54:13;32.47;;;15.87;;
22644;SDS011;11489;50.834;6.752;2023-02-15T08:56:41;30.70;;;14.80;;
22644;SDS011;11489;50.834;6.752;2023-02-15T08:59:11;32.73;;;15.00;;
22644;SDS011;11489;50.834;6.752;2023-02-15T09:01:48;31.77;;;14.57;;
22644;SDS011;11489;50.834;6.752;2023-02-15T09:04:15;27.77;;;14.03;;
22644;SDS011;11489;50.834;6.752;2023-02-15T09:06:41;31.07;;;15.37;;
22644;SDS011;11489;50.834;6.752;2023-02-15T09:09:09;35.87;;;15.93;;
22644;SDS011;11489;50.834;6.752;2023-02-15T09:11:37;30.23;;;14.93;;
22644;SDS011;11489;50.834;6.752;2023-02-15T09:14:06;30.10;;;14.73;;
22644;SDS011;11489;50.834;6.752;2023-02-15T09:16:35;29.17;;;15.17;;
22644;SDS011;11489;50.834;6.752;2023-02-15T09:19:02;32.87;;;15.27;;
22644;SDS011;11489;50.834;6.752;2023-02-15T09:21:32;30.77;;;15.13;;
22644;SDS011;11489;50.834;6.752;2023-02-15T09:24:00;32.70;;;14.80;;
22644;SDS011;11489;50.834;6.752;2023-02-15T09:26:28;31.70;;;15.17;;
22644;SDS011;11489;50.834;6.752;2023-02-15T09:28:56;29.90;;;15.20;;
22644;SDS011;11489;50.834;6.752;2023-02-15T09:31:25;28.90;;;14.93;;
22644;SDS011;11489;50.834;6.752;2023-02-15T09:33:53;33.60;;;15.90;;
22644;SDS011;11489;50.834;6.752;2023-02-15T09:36:20;30.43;;;16.30;;
22644;SDS011;11489;50.834;6.752;2023-02-15T09:38:52;33.63;;;15.63;;
22644;SDS011;11489;50.834;6.752;2023-02-15T09:46:40;30.48;;;16.20;;
22644;SDS011;11489;50.834;6.752;2023-02-15T09:49:31;29.05;;;15.32;;
22644;SDS011;11489;50.834;6.752;2023-02-15T10:00:58;31.00;;;15.98;;
22644;SDS011;11489;50.834;6.752;2023-02-15T10:03:48;28.33;;;15.38;;
22644;SDS011;11489;50.834;6.752;2023-02-15T10:22:36;27.38;;;15.27;;
22644;SDS011;11489;50.834;6.752;2023-02-15T10:28:34;26.58;;;15.48;;
22644;SDS011;11489;50.834;6.752;2023-02-15T10:31:22;30.23;;;15.43;;
22644;SDS011;11489;50.834;6.752;2023-02-15T10:34:15;28.30;;;14.40;;
22644;SDS011;11489;50.834;6.752;2023-02-15T10:39:25;25.58;;;14.45;;
22644;SDS011;11489;50.834;6.752;2023-02-15T10:47:48;24.58;;;14.35;;
22644;SDS011;11489;50.834;6.752;2023-02-15T10:53:06;26.20;;;13.30;;
22644;SDS011;11489;50.834;6.752;2023-02-15T10:58:16;22.10;;;13.55;;
22644;SDS011;11489;50.834;6.752;2023-02-15T11:01:13;23.33;;;13.38;;
22644;SDS011;11489;50.834;6.752;2023-02-15T11:06:35;23.73;;;12.80;;
22644;SDS011;11489;50.834;6.752;2023-02-15T11:09:12;20.95;;;12.07;;
22644;SDS011;11489;50.834;6.752;2023-02-15T11:11:43;22.92;;;13.02;;
22644;SDS011;11489;50.834;6.752;2023-02-15T11:14:14;21.35;;;12.88;;
22644;SDS011;11489;50.834;6.752;2023-02-15T11:17:02;24.70;;;12.82;;
22644;SDS011;11489;50.834;6.752;2023-02-15T11:19:35;21.48;;;12.90;;
22644;SDS011;11489;50.834;6.752;2023-02-15T11:22:06;24.33;;;12.82;;
22644;SDS011;11489;50.834;6.752;2023-02-15T11:24:42;21.67;;;12.77;;
22644;SDS011;11489;50.834;6.752;2023-02-15T11:27:16;24.15;;;14.07;;
22644;SDS011;11489;50.834;6.752;2023-02-15T11:32:47;21.10;;;12.30;;
22644;SDS011;11489;50.834;6.752;2023-02-15T11:35:20;21.63;;;12.63;;
22644;SDS011;11489;50.834;6.752;2023-02-15T11:38:09;21.48;;;12.85;;
22644;SDS011;11489;50.834;6.752;2023-02-15T11:40:47;20.05;;;11.80;;
22644;SDS011;11489;50.834;6.752;2023-02-15T11:43:26;20.35;;;12.23;;
22644;SDS011;11489;50.834;6.752;2023-02-15T11:45:59;20.42;;;12.48;;
22644;SDS011;11489;50.834;6.752;2023-02-15T11:48:24;21.13;;;12.30;;
22644;SDS011;11489;50.834;6.752;2023-02-15T11:50:50;19.67;;;11.80;;
22644;SDS011;11489;50.834;6.752;2023-02-15T11:53:17;21.65;;;12.10;;
22644;SDS011;11489;50.834;6.752;2023-02-15T11:55:46;22.13;;;11.93;;
22644;SDS011;11489;50.834;6.752;2023-02-15T12:03:47;25.98;;;12.45;;
22644;SDS011;11489;50.834;6.752;2023-02-15T12:06:28;19.08;;;11.90;;
22644;SDS011;11489;50.834;6.752;2023-02-15T12:09:00;20.65;;;11.88;;
22644;SDS011;11489;50.834;6.752;2023-02-15T12:11:44;19.08;;;11.95;;
22644;SDS011;11489;50.834;6.752;2023-02-15T12:14:12;19.25;;;11.82;;
22644;SDS011;11489;50.834;6.752;2023-02-15T12:16:50;19.48;;;12.60;;
22644;SDS011;11489;50.834;6.752;2023-02-15T12:19:33;27.35;;;12.52;;
22644;SDS011;11489;50.834;6.752;2023-02-15T12:22:05;20.10;;;12.25;;
22644;SDS011;11489;50.834;6.752;2023-02-15T12:24:45;19.30;;;11.57;;
22644;SDS011;11489;50.834;6.752;2023-02-15T12:27:14;18.42;;;12.05;;
22644;SDS011;11489;50.834;6.752;2023-02-15T12:29:47;20.75;;;12.48;;
22644;SDS011;11489;50.834;6.752;2023-02-15T12:32:19;20.63;;;12.80;;
22644;SDS011;11489;50.834;6.752;2023-02-15T12:34:48;22.20;;;12.30;;
22644;SDS011;11489;50.834;6.752;2023-02-15T12:37:17;23.65;;;12.27;;
22644;SDS011;11489;50.834;6.752;2023-02-15T12:39:53;21.73;;;11.90;;
22644;SDS011;11489;50.834;6.752;2023-02-15T12:42:21;21.67;;;12.43;;
22644;SDS011;11489;50.834;6.752;2023-02-15T12:44:54;18.95;;;11.55;;
22644;SDS011;11489;50.834;6.752;2023-02-15T12:47:25;17.60;;;11.35;;
22644;SDS011;11489;50.834;6.752;2023-02-15T12:52:42;22.00;;;11.38;;
22644;SDS011;11489;50.834;6.752;2023-02-15T12:57:44;16.15;;;10.95;;
22644;SDS011;11489;50.834;6.752;2023-02-15T13:02:44;16.27;;;10.63;;
22644;SDS011;11489;50.834;6.752;2023-02-15T13:05:18;17.50;;;11.38;;
22644;SDS011;11489;50.834;6.752;2023-02-15T13:07:49;17.73;;;11.77;;
22644;SDS011;11489;50.834;6.752;2023-02-15T13:13:00;21.42;;;12.00;;
22644;SDS011;11489;50.834;6.752;2023-02-15T13:15:38;18.42;;;11.10;;
22644;SDS011;11489;50.834;6.752;2023-02-15T13:18:10;17.00;;;11.05;;
22644;SDS011;11489;50.834;6.752;2023-02-15T13:20:41;19.33;;;10.93;;
22644;SDS011;11489;50.834;6.752;2023-02-15T13:23:26;18.55;;;11.80;;
22644;SDS011;11489;50.834;6.752;2023-02-15T13:25:54;18.42;;;11.43;;
22644;SDS011;11489;50.834;6.752;2023-02-15T13:28:25;17.70;;;11.27;;
22644;SDS011;11489;50.834;6.752;2023-02-15T13:31:14;17.55;;;10.80;;
22644;SDS011;11489;50.834;6.752;2023-02-15T13:33:43;18.63;;;10.75;;
22644;SDS011;11489;50.834;6.752;2023-02-15T13:41:51;17.95;;;11.68;;
22644;SDS011;11489;50.834;6.752;2023-02-15T13:47:32;17.90;;;11.50;;
22644;SDS011;11489;50.834;6.752;2023-02-15T13:53:14;18.42;;;10.90;;
22644;SDS011;11489;50.834;6.752;2023-02-15T13:55:51;20.50;;;10.80;;
22644;SDS011;11489;50.834;6.752;2023-02-15T14:01:31;17.58;;;11.20;;
22644;SDS011;11489;50.834;6.752;2023-02-15T14:04:09;18.13;;;10.68;;
22644;SDS011;11489;50.834;6.752;2023-02-15T14:18:39;17.58;;;9.82;;
22644;SDS011;11489;50.834;6.752;2023-02-15T14:23:56;15.80;;;9.98;;
22644;SDS011;11489;50.834;6.752;2023-02-15T14:31:46;17.80;;;10.35;;
22644;SDS011;11489;50.834;6.752;2023-02-15T14:34:27;19.70;;;10.77;;
22644;SDS011;11489;50.834;6.752;2023-02-15T14:37:01;19.27;;;9.95;;
22644;SDS011;11489;50.834;6.752;2023-02-15T14:39:31;20.90;;;10.35;;
22644;SDS011;11489;50.834;6.752;2023-02-15T14:42:37;17.55;;;10.65;;
22644;SDS011;11489;50.834;6.752;2023-02-15T14:45:21;15.85;;;9.60;;
22644;SDS011;11489;50.834;6.752;2023-02-15T14:48:19;15.77;;;9.20;;
22644;SDS011;11489;50.834;6.752;2023-02-15T14:50:47;18.90;;;10.70;;
22644;SDS011;11489;50.834;6.752;2023-02-15T15:04:27;15.43;;;9.65;;
22644;SDS011;11489;50.834;6.752;2023-02-15T15:09:37;18.10;;;9.95;;
22644;SDS011;11489;50.834;6.752;2023-02-15T15:12:35;16.98;;;10.30;;
22644;SDS011;11489;50.834;6.752;2023-02-15T15:15:02;18.33;;;10.02;;
22644;SDS011;11489;50.834;6.752;2023-02-15T15:22:39;20.33;;;9.82;;
22644;SDS011;11489;50.834;6.752;2023-02-15T15:25:10;19.05;;;10.23;;
22644;SDS011;11489;50.834;6.752;2023-02-15T15:28:06;17.65;;;10.35;;
22644;SDS011;11489;50.834;6.752;2023-02-15T15:41:34;16.40;;;9.75;;
22644;SDS011;11489;50.834;6.752;2023-02-15T15:50:00;14.60;;;9.48;;
22644;SDS011;11489;50.834;6.752;2023-02-15T15:52:30;16.83;;;10.50;;
22644;SDS011;11489;50.834;6.752;2023-02-15T15:55:04;18.85;;;9.98;;
22644;SDS011;11489;50.834;6.752;2023-02-15T15:57:39;15.82;;;9.88;;
22644;SDS011;11489;50.834;6.752;2023-02-15T16:00:41;17.88;;;10.45;;
22644;SDS011;11489;50.834;6.752;2023-02-15T16:03:16;20.35;;;9.88;;
22644;SDS011;11489;50.834;6.752;2023-02-15T16:05:50;20.90;;;10.38;;
22644;SDS011;11489;50.834;6.752;2023-02-15T16:08:31;18.85;;;10.63;;
22644;SDS011;11489;50.834;6.752;2023-02-15T16:11:13;19.70;;;10.13;;
22644;SDS011;11489;50.834;6.752;2023-02-15T16:13:42;16.88;;;10.88;;
22644;SDS011;11489;50.834;6.752;2023-02-15T16:16:11;21.00;;;10.35;;
22644;SDS011;11489;50.834;6.752;2023-02-15T16:18:38;18.25;;;10.77;;
22644;SDS011;11489;50.834;6.752;2023-02-15T16:21:12;19.42;;;11.10;;
22644;SDS011;11489;50.834;6.752;2023-02-15T16:29:16;16.85;;;10.02;;
22644;SDS011;11489;50.834;6.752;2023-02-15T16:31:43;17.50;;;11.02;;
22644;SDS011;11489;50.834;6.752;2023-02-15T16:34:49;18.50;;;10.52;;
22644;SDS011;11489;50.834;6.752;2023-02-15T16:37:20;22.00;;;10.57;;
22644;SDS011;11489;50.834;6.752;2023-02-15T16:39:48;22.80;;;10.60;;
22644;SDS011;11489;50.834;6.752;2023-02-15T16:42:15;17.73;;;10.63;;
22644;SDS011;11489;50.834;6.752;2023-02-15T16:44:43;19.15;;;10.70;;
22644;SDS011;11489;50.834;6.752;2023-02-15T16:47:20;20.08;;;11.10;;
22644;SDS011;11489;50.834;6.752;2023-02-15T16:49:52;17.05;;;10.32;;
22644;SDS011;11489;50.834;6.752;2023-02-15T16:52:22;15.68;;;10.45;;
22644;SDS011;11489;50.834;6.752;2023-02-15T16:54:51;21.48;;;11.75;;
22644;SDS011;11489;50.834;6.752;2023-02-15T16:57:24;21.20;;;11.27;;
22644;SDS011;11489;50.834;6.752;2023-02-15T16:59:54;20.08;;;11.95;;
22644;SDS011;11489;50.834;6.752;2023-02-15T17:02:26;22.55;;;11.38;;
22644;SDS011;11489;50.834;6.752;2023-02-15T17:05:01;22.90;;;11.70;;
22644;SDS011;11489;50.834;6.752;2023-02-15T17:07:39;22.50;;;11.73;;
22644;SDS011;11489;50.834;6.752;2023-02-15T17:10:25;22.15;;;11.63;;
22644;SDS011;11489;50.834;6.752;2023-02-15T17:12:53;20.05;;;11.43;;
22644;SDS011;11489;50.834;6.752;2023-02-15T17:15:44;24.63;;;11.73;;
22644;SDS011;11489;50.834;6.752;2023-02-15T17:18:28;18.42;;;9.98;;
22644;SDS011;11489;50.834;6.752;2023-02-15T17:21:13;22.13;;;11.05;;
22644;SDS011;11489;50.834;6.752;2023-02-15T17:23:44;20.85;;;11.43;;
22644;SDS011;11489;50.834;6.752;2023-02-15T17:28:50;20.20;;;11.50;;
22644;SDS011;11489;50.834;6.752;2023-02-15T17:31:17;19.83;;;11.07;;
22644;SDS011;11489;50.834;6.752;2023-02-15T17:33:44;20.15;;;10.80;;
22644;SDS011;11489;50.834;6.752;2023-02-15T17:36:17;20.90;;;11.63;;
22644;SDS011;11489;50.834;6.752;2023-02-15T17:41:25;20.90;;;11.65;;
22644;SDS011;11489;50.834;6.752;2023-02-15T17:43:52;19.95;;;11.63;;